Stamford, NY (12167)

9:11 AM EDT on September 02, 2015 (GMT -0400)
Stamford Central School | | Change Station
CLOSE
Current Station
Personal Weather Station
Location: Stamford, NY
Elevation: 1804 ft
Nearby Weather Stations

Elev 1804 ft 42.41 °N, 74.62 °W | Updated 7 minutes ago

Partly Cloudy
Partly Cloudy
60.0 °F
Feels Like 60.0 °F
N
0.0
Wind Variable Wind from SW

Today
High -- | Low -- °F
--% Chance of Precip.
Yesterday
High -- | Low -- °F
Precip. -- in
6:24 AM 7:31 PM
Waning Gibbous, 80% visible
Pressure 30.03 in
Visibility 6.0 miles
Clouds Clear
Dew Point 59 °F
Humidity 95%
Rainfall 0.00 in
Snow Depth Not available.
UV 1.2 out of 12
Pollen 9.30 out of 12
Air Quality Not available.
Flu Activity Not available.
METAR KALB 021251Z 00000KT 6SM HZ CLR 21/18 A3003 RMK AO2 SLP168 T02110178
Pressure 30.03 in
Visibility 6.0 miles
Clouds Clear
Dew Point 59 °F
Humidity 95%
Rainfall 0.00 in
Snow Depth Not available.
UV 1.2 out of 12
Pollen 9.30 out of 12
Air Quality Not available.
Flu Activity Not available.
METAR KALB 021251Z 00000KT 6SM HZ CLR 21/18 A3003 RMK AO2 SLP168 T02110178

10-Day Weather Forecast

×

Almanac

Astronomy

Sep. 02, 2015 Rise Set
Actual Time
Civil Twilight
Nautical Twilight
Astronomical Twilight
Moon
Length of Visible Light
Length of Day
Tomorrow will be .
, % of the Moon is Illuminated

Today's Extremes

State Highs State Lows

Community

WunderPhotos

Upload Photos

1,851,750 photos uploaded!

WunderBlogs® & News

Nearby

Air Quality

  Air Quality AQ Index Pollutant
Not available.

Snow Depth

Station Depth Elevation

Earthquake Activity

City Distance Mag. Time & Date
Minimum magnitude displayed is 2.5.

Coastal Water Temperatures

Place Temperature

Stations

Nearby Weather Stations

Station Location Temp. Windchill Dew Point Humidity Wind Precip. Elev Updated Type